Time;durP1;ratioP1;P1;durP2;ratioP2;P2;SDS_P1;SDS_P2;PMS_P1;PMS_P2;Temp;Humidity;BMP_temperature;BMP_pressure;BME280_temperature;BME280_humidity;BME280_pressure;Samples;Min_cycle;Max_cycle;Signal;HPM_P1;HPM_P2
2024/03/29 00:00:53;;;;;;;4.53;1.13;;;7.80;99.90;;;;;;4986604;28;20097;-69
2024/03/29 00:03:19;;;;;;;5.55;0.90;;;7.90;99.90;;;;;;4985332;28;20057;-69
2024/03/29 00:05:45;;;;;;;3.47;1.10;;;7.90;99.90;;;;;;4981795;28;20031;-69
2024/03/29 00:08:13;;;;;;;6.82;1.20;;;7.90;99.90;;;;;;4987674;28;20042;-70
2024/03/29 00:10:39;;;;;;;2.05;0.90;;;8.00;99.90;;;;;;4987319;28;20034;-69
2024/03/29 00:13:05;;;;;;;2.25;0.90;;;8.00;99.90;;;;;;4986071;28;20022;-69
2024/03/29 00:15:33;;;;;;;3.38;0.98;;;8.00;99.90;;;;;;4989841;28;20041;-69
2024/03/29 00:17:59;;;;;;;5.20;1.23;;;8.00;99.90;;;;;;4988972;28;20065;-69
2024/03/29 00:20:25;;;;;;;5.53;1.10;;;8.00;99.90;;;;;;4989117;28;20476;-69
2024/03/29 00:22:53;;;;;;;3.97;1.00;;;8.00;99.90;;;;;;4983936;28;20045;-69
2024/03/29 00:25:19;;;;;;;4.38;1.25;;;8.00;99.90;;;;;;5012943;28;20043;-69
2024/03/29 00:27:45;;;;;;;3.30;1.17;;;7.90;99.90;;;;;;4987269;28;20029;-69
2024/03/29 00:30:12;;;;;;;3.90;1.15;;;8.00;99.90;;;;;;4989619;28;20127;-69
2024/03/29 00:32:38;;;;;;;3.00;1.23;;;7.90;99.90;;;;;;4988832;28;20571;-69
2024/03/29 00:35:03;;;;;;;6.82;1.70;;;7.80;99.90;;;;;;5003765;28;20538;-69
2024/03/29 00:37:31;;;;;;;6.07;1.80;;;7.80;99.90;;;;;;5006512;28;20069;-69
2024/03/29 00:39:57;;;;;;;7.78;1.73;;;7.80;99.90;;;;;;5000103;28;20030;-68
2024/03/29 00:42:24;;;;;;;7.28;1.80;;;7.90;99.90;;;;;;4989464;28;20530;-69
2024/03/29 00:44:50;;;;;;;9.43;1.77;;;7.80;99.90;;;;;;5000932;28;20030;-69
2024/03/29 00:47:15;;;;;;;4.63;1.40;;;7.80;99.90;;;;;;4996084;28;20026;-69
2024/03/29 00:49:41;;;;;;;5.15;1.30;;;7.70;99.90;;;;;;4998481;28;20027;-69
2024/03/29 00:52:07;;;;;;;8.50;1.40;;;7.60;99.90;;;;;;4987652;28;20469;-69
2024/03/29 00:54:32;;;;;;;5.72;1.50;;;7.50;99.90;;;;;;4989304;28;20030;-69
2024/03/29 00:56:58;;;;;;;4.90;1.70;;;7.50;99.90;;;;;;4985677;28;20288;-69
2024/03/29 00:59:24;;;;;;;7.07;1.40;;;7.50;99.90;;;;;;4989388;28;20034;-69
2024/03/29 01:01:52;;;;;;;5.85;1.33;;;7.50;99.90;;;;;;4988211;28;20022;-69
2024/03/29 01:04:18;;;;;;;3.03;0.93;;;7.60;99.90;;;;;;4991589;28;20718;-69
2024/03/29 01:06:44;;;;;;;3.35;1.30;;;7.60;99.90;;;;;;4987484;28;20023;-69
2024/03/29 01:09:13;;;;;;;4.22;1.00;;;7.60;99.90;;;;;;4987771;28;20026;-69
2024/03/29 01:11:41;;;;;;;4.38;1.10;;;7.70;99.90;;;;;;4990166;28;20045;-68
2024/03/29 01:14:09;;;;;;;5.68;1.38;;;7.70;99.90;;;;;;5001011;28;20160;-69
2024/03/29 01:16:37;;;;;;;6.25;1.40;;;7.70;99.90;;;;;;5006811;28;20424;-69
2024/03/29 01:19:04;;;;;;;6.00;1.30;;;7.60;99.90;;;;;;4988577;28;20026;-69
2024/03/29 01:21:30;;;;;;;6.20;1.30;;;7.70;99.90;;;;;;4987006;28;20126;-69
2024/03/29 01:23:56;;;;;;;5.60;1.40;;;7.60;99.90;;;;;;4986660;28;20125;-69
2024/03/29 01:26:21;;;;;;;5.32;1.48;;;7.60;99.90;;;;;;4997389;28;20103;-69
2024/03/29 01:28:47;;;;;;;8.63;1.83;;;7.60;99.90;;;;;;4986165;28;20093;-69
2024/03/29 01:31:12;;;;;;;8.43;2.20;;;7.60;99.90;;;;;;4988173;28;20031;-69
2024/03/29 01:33:40;;;;;;;6.13;1.70;;;7.60;99.90;;;;;;4988883;28;20090;-69
2024/03/29 01:36:06;;;;;;;6.45;1.88;;;7.60;99.90;;;;;;5019426;28;20085;-69
2024/03/29 01:38:32;;;;;;;10.27;2.00;;;7.70;99.90;;;;;;5047320;28;20049;-69
2024/03/29 01:40:58;;;;;;;7.30;2.05;;;7.80;99.90;;;;;;4991311;28;20087;-68
2024/03/29 01:43:24;;;;;;;10.50;3.08;;;7.80;99.90;;;;;;4991970;28;20030;-68
2024/03/29 01:45:53;;;;;;;10.55;2.20;;;7.80;99.90;;;;;;5004640;28;20109;-67
2024/03/29 01:48:20;;;;;;;7.47;2.40;;;7.90;99.90;;;;;;4996690;28;20023;-67
2024/03/29 01:50:46;;;;;;;8.80;2.15;;;7.90;99.90;;;;;;4991247;28;20403;-67
2024/03/29 01:53:14;;;;;;;5.85;2.08;;;7.90;99.90;;;;;;4992177;28;20626;-66
2024/03/29 01:55:43;;;;;;;9.73;2.35;;;7.90;99.90;;;;;;4998737;28;20121;-66
2024/03/29 01:58:10;;;;;;;9.60;2.38;;;8.00;99.90;;;;;;4990868;28;20109;-68
2024/03/29 02:00:43;;;;;;;6.57;2.30;;;8.10;99.90;;;;;;4991734;28;20031;-68
2024/03/29 02:03:12;;;;;;;8.70;2.63;;;8.20;99.90;;;;;;4988286;28;20038;-66
2024/03/29 02:05:39;;;;;;;7.13;2.60;;;8.20;99.90;;;;;;4991469;28;20428;-66
2024/03/29 02:08:07;;;;;;;6.30;1.70;;;8.20;99.90;;;;;;4989785;28;20042;-66
2024/03/29 02:10:33;;;;;;;7.50;1.67;;;8.10;99.90;;;;;;4988424;28;20101;-66
2024/03/29 02:12:59;;;;;;;4.35;1.10;;;8.20;99.90;;;;;;4987211;28;20026;-66
2024/03/29 02:15:25;;;;;;;4.72;1.20;;;8.20;99.90;;;;;;4987380;28;20027;-66
2024/03/29 02:17:51;;;;;;;2.38;0.98;;;8.30;99.90;;;;;;4998302;28;20362;-66
2024/03/29 02:20:16;;;;;;;6.63;1.33;;;8.30;99.90;;;;;;4999293;28;20076;-66
2024/03/29 02:22:53;;;;;;;4.55;1.05;;;8.30;99.90;;;;;;4998788;28;20106;-67
2024/03/29 02:25:22;;;;;;;6.07;1.40;;;8.30;99.90;;;;;;4992151;28;20053;-66
2024/03/29 02:27:50;;;;;;;4.75;1.17;;;8.30;99.90;;;;;;4991507;28;20027;-66
2024/03/29 02:30:16;;;;;;;3.85;1.13;;;8.20;99.90;;;;;;4995436;28;20037;-66
2024/03/29 02:32:43;;;;;;;3.13;0.90;;;8.30;99.90;;;;;;4995317;28;20148;-66
2024/03/29 02:35:08;;;;;;;4.53;1.13;;;8.30;99.90;;;;;;4994403;28;20072;-66
2024/03/29 02:37:37;;;;;;;3.70;1.10;;;8.30;99.90;;;;;;5025925;28;20018;-66
2024/03/29 02:40:04;;;;;;;7.15;1.10;;;8.40;99.90;;;;;;4994238;28;20023;-66
2024/03/29 02:42:29;;;;;;;3.55;1.00;;;8.50;99.90;;;;;;4995438;28;20054;-66
2024/03/29 02:44:58;;;;;;;4.07;1.17;;;8.50;99.90;;;;;;4994679;28;20078;-66
2024/03/29 02:47:23;;;;;;;2.55;1.00;;;8.50;99.90;;;;;;4998341;28;20069;-67
2024/03/29 02:49:51;;;;;;;3.70;1.00;;;8.50;99.90;;;;;;4992309;28;20026;-68
2024/03/29 02:52:17;;;;;;;1.73;0.80;;;8.60;99.90;;;;;;4989540;28;20126;-68
2024/03/29 02:54:43;;;;;;;2.40;1.00;;;8.70;99.90;;;;;;4990951;28;20102;-68
2024/03/29 02:57:08;;;;;;;3.03;1.10;;;8.90;99.90;;;;;;4989055;28;20030;-68
2024/03/29 02:59:34;;;;;;;3.47;1.23;;;9.00;99.90;;;;;;4991308;28;20443;-68
2024/03/29 03:01:59;;;;;;;5.03;1.20;;;9.00;99.90;;;;;;4989990;28;20110;-68
2024/03/29 03:04:25;;;;;;;2.47;0.90;;;9.20;99.90;;;;;;4990304;28;20039;-68
2024/03/29 03:06:51;;;;;;;4.38;1.02;;;9.20;99.90;;;;;;4989870;28;20095;-68
2024/03/29 03:12:00;;;;;;;3.67;0.90;;;9.30;99.90;;;;;;4989995;28;20052;-68
2024/03/29 03:14:26;;;;;;;3.50;1.10;;;9.30;99.90;;;;;;4985976;28;20026;-68
2024/03/29 03:16:52;;;;;;;4.47;1.20;;;9.40;99.90;;;;;;4983046;28;20031;-68
2024/03/29 03:19:18;;;;;;;5.10;1.05;;;9.40;99.90;;;;;;4990158;28;20122;-68
2024/03/29 03:21:44;;;;;;;2.63;0.90;;;9.50;99.90;;;;;;5005373;28;20558;-69
2024/03/29 03:24:11;;;;;;;3.53;0.90;;;9.50;99.90;;;;;;4983111;28;20035;-69
2024/03/29 03:26:37;;;;;;;2.05;0.88;;;9.40;99.90;;;;;;4988849;28;20058;-69
2024/03/29 03:29:03;;;;;;;2.05;0.93;;;9.30;99.90;;;;;;4988198;28;20050;-69
2024/03/29 03:31:28;;;;;;;4.90;1.10;;;9.20;99.90;;;;;;4990718;28;20071;-69
2024/03/29 03:33:54;;;;;;;4.38;1.00;;;9.10;99.90;;;;;;4985678;28;20303;-69
2024/03/29 03:36:19;;;;;;;3.45;0.93;;;8.90;99.90;;;;;;4994856;28;20038;-69
2024/03/29 03:38:45;;;;;;;1.98;1.10;;;8.70;99.90;;;;;;4990313;28;20117;-69
2024/03/29 03:41:11;;;;;;;2.92;1.10;;;8.60;99.90;;;;;;4990465;28;20035;-69
2024/03/29 03:43:39;;;;;;;2.80;0.90;;;8.50;99.90;;;;;;4984429;28;20023;-69
2024/03/29 03:46:04;;;;;;;3.35;1.10;;;8.40;99.90;;;;;;4995996;28;20030;-69
2024/03/29 03:48:30;;;;;;;5.68;1.00;;;8.30;99.90;;;;;;4993054;28;20036;-69
2024/03/29 03:50:56;;;;;;;1.95;0.90;;;8.20;99.90;;;;;;4990158;28;20481;-68
2024/03/29 03:53:22;;;;;;;2.55;1.00;;;8.10;99.90;;;;;;4985952;28;20031;-69
2024/03/29 03:55:49;;;;;;;2.90;0.93;;;8.10;99.90;;;;;;4989891;28;20441;-69
2024/03/29 03:58:15;;;;;;;2.25;0.90;;;8.00;99.90;;;;;;4988077;28;20043;-69
2024/03/29 04:00:41;;;;;;;2.95;1.08;;;8.00;99.90;;;;;;4991562;28;20029;-67
2024/03/29 04:03:06;;;;;;;5.72;1.20;;;8.00;99.90;;;;;;4991377;28;20034;-67
2024/03/29 04:05:32;;;;;;;4.90;0.95;;;7.90;99.90;;;;;;4991690;28;20035;-67
2024/03/29 04:07:58;;;;;;;3.38;1.10;;;7.90;99.90;;;;;;4988882;28;20045;-67
2024/03/29 04:10:24;;;;;;;6.00;0.95;;;7.90;99.90;;;;;;5003036;28;20050;-67
2024/03/29 04:12:55;;;;;;;1.75;0.90;;;7.90;99.90;;;;;;4991160;28;20065;-67
2024/03/29 04:15:23;;;;;;;3.85;0.90;;;7.90;99.90;;;;;;4992267;28;20023;-67
2024/03/29 04:17:51;;;;;;;4.22;1.10;;;7.70;99.90;;;;;;4997540;28;20423;-67
2024/03/29 04:20:17;;;;;;;3.03;1.00;;;7.70;99.90;;;;;;4995676;28;21426;-67
2024/03/29 04:22:45;;;;;;;3.28;1.08;;;7.60;99.90;;;;;;4992546;28;20388;-67
2024/03/29 04:25:10;;;;;;;5.05;1.00;;;7.40;99.90;;;;;;4991849;28;20029;-67
2024/03/29 04:27:36;;;;;;;4.47;1.13;;;7.40;99.90;;;;;;4998296;28;20031;-67
2024/03/29 04:30:02;;;;;;;2.97;0.93;;;7.40;99.90;;;;;;4991416;28;20023;-67
2024/03/29 04:32:28;;;;;;;3.38;0.95;;;7.30;99.90;;;;;;4991929;28;20019;-67
2024/03/29 04:34:53;;;;;;;5.95;1.20;;;7.40;99.90;;;;;;4992318;28;20027;-67
2024/03/29 04:37:19;;;;;;;4.45;1.10;;;7.40;99.90;;;;;;5016911;28;20389;-67
2024/03/29 04:39:46;;;;;;;3.60;1.00;;;7.40;99.90;;;;;;4992871;28;20102;-66
2024/03/29 04:42:12;;;;;;;6.65;1.17;;;7.40;99.90;;;;;;4993376;28;20530;-67
2024/03/29 04:44:38;;;;;;;2.53;1.00;;;7.30;99.90;;;;;;5002732;28;20034;-67
2024/03/29 04:47:04;;;;;;;7.47;1.50;;;7.20;99.90;;;;;;4993883;28;21256;-66
2024/03/29 04:49:33;;;;;;;4.78;1.30;;;7.20;99.90;;;;;;5007256;28;20049;-66
2024/03/29 04:51:59;;;;;;;6.28;1.20;;;7.20;99.90;;;;;;4992522;28;20054;-66
2024/03/29 04:54:25;;;;;;;3.20;1.05;;;7.20;99.90;;;;;;4989272;28;20023;-66
2024/03/29 04:56:51;;;;;;;6.53;1.27;;;7.20;99.90;;;;;;4989113;28;20067;-66
2024/03/29 04:59:17;;;;;;;5.80;1.40;;;7.10;99.90;;;;;;5009149;28;20022;-66
2024/03/29 05:01:50;;;;;;;4.00;1.23;;;7.10;99.90;;;;;;5008685;28;20027;-67
2024/03/29 05:04:18;;;;;;;7.78;1.25;;;7.10;99.90;;;;;;5002505;28;20546;-67
2024/03/29 05:06:45;;;;;;;4.60;1.20;;;7.10;99.90;;;;;;4991736;28;20026;-66
2024/03/29 05:09:11;;;;;;;4.22;1.05;;;7.10;99.90;;;;;;4991875;28;20025;-67
2024/03/29 05:11:40;;;;;;;8.82;1.50;;;7.10;99.90;;;;;;4987822;28;20023;-66
2024/03/29 05:14:05;;;;;;;7.45;1.30;;;7.00;99.90;;;;;;4989841;28;20038;-66
2024/03/29 05:16:32;;;;;;;4.45;1.20;;;6.90;99.90;;;;;;4999398;28;20110;-66
2024/03/29 05:18:57;;;;;;;7.53;1.33;;;6.90;99.90;;;;;;4997254;28;20030;-66
2024/03/29 05:21:23;;;;;;;5.68;1.30;;;6.90;99.90;;;;;;4990203;28;20050;-66
2024/03/29 05:23:48;;;;;;;3.67;1.33;;;6.80;99.90;;;;;;4986250;28;20081;-64
2024/03/29 05:26:14;;;;;;;5.95;1.30;;;6.80;99.90;;;;;;4989817;28;20034;-64
2024/03/29 05:28:40;;;;;;;4.70;1.45;;;6.70;99.90;;;;;;4984925;28;20521;-67
2024/03/29 05:31:15;;;;;;;10.40;2.25;;;6.60;99.90;;;;;;4990717;28;20041;-64
2024/03/29 05:33:44;;;;;;;5.35;1.50;;;6.50;99.90;;;;;;4990458;28;20023;-66
2024/03/29 05:36:18;;;;;;;5.97;1.40;;;6.60;99.90;;;;;;5024461;28;20072;-66
2024/03/29 05:38:44;;;;;;;7.32;1.40;;;6.50;99.90;;;;;;4986959;28;20497;-66
2024/03/29 05:41:10;;;;;;;4.15;1.25;;;6.50;99.90;;;;;;4989105;28;20030;-66
2024/03/29 05:43:35;;;;;;;5.15;1.88;;;6.50;99.90;;;;;;4990526;28;20034;-67
2024/03/29 05:46:04;;;;;;;6.85;1.40;;;6.50;99.90;;;;;;5009949;28;20369;-67
2024/03/29 05:48:30;;;;;;;5.07;1.63;;;6.50;99.90;;;;;;4991548;28;20021;-65
2024/03/29 05:50:55;;;;;;;8.30;1.52;;;6.50;99.90;;;;;;4995730;28;20117;-65
2024/03/29 05:53:21;;;;;;;4.70;1.52;;;6.50;99.90;;;;;;5005661;28;20062;-65
2024/03/29 05:55:49;;;;;;;3.80;1.40;;;6.50;99.90;;;;;;4992118;28;20023;-65
2024/03/29 05:58:17;;;;;;;6.15;1.45;;;6.50;99.90;;;;;;5008435;28;20026;-65
2024/03/29 06:00:43;;;;;;;4.40;1.48;;;6.50;99.90;;;;;;4992050;28;20783;-65
2024/03/29 06:03:11;;;;;;;6.13;1.60;;;6.50;99.90;;;;;;4989978;28;20030;-65
2024/03/29 06:05:39;;;;;;;9.05;1.38;;;6.50;99.90;;;;;;4984438;28;20027;-65
2024/03/29 06:08:07;;;;;;;6.13;1.90;;;6.50;99.90;;;;;;4990615;28;20057;-65
2024/03/29 06:10:33;;;;;;;6.20;1.60;;;6.60;99.90;;;;;;4990042;28;20053;-65
2024/03/29 06:13:07;;;;;;;7.55;1.55;;;6.60;99.90;;;;;;4990186;28;20041;-65
2024/03/29 06:18:18;;;;;;;6.82;1.77;;;6.70;99.90;;;;;;4990586;28;20034;-65
2024/03/29 06:20:47;;;;;;;4.95;1.30;;;6.70;99.90;;;;;;4990951;28;20478;-66
2024/03/29 06:23:12;;;;;;;6.07;1.73;;;6.80;99.90;;;;;;5002742;28;20038;-66
2024/03/29 06:25:39;;;;;;;9.45;1.67;;;6.80;99.90;;;;;;4993032;28;20034;-66
2024/03/29 06:28:05;;;;;;;4.80;1.13;;;6.80;99.90;;;;;;4989883;28;20027;-66
2024/03/29 06:30:30;;;;;;;4.07;1.38;;;6.90;99.90;;;;;;5004977;28;20090;-66
2024/03/29 06:32:56;;;;;;;5.40;1.90;;;6.90;99.90;;;;;;4992144;28;20034;-66
2024/03/29 06:35:22;;;;;;;7.30;1.60;;;6.90;99.90;;;;;;4992484;28;20431;-66
2024/03/29 06:37:47;;;;;;;8.05;1.50;;;7.00;99.90;;;;;;5009010;28;20018;-66
2024/03/29 06:40:13;;;;;;;5.63;1.50;;;7.00;99.90;;;;;;4990655;28;20110;-66
2024/03/29 06:42:39;;;;;;;4.53;1.50;;;7.10;99.90;;;;;;4991009;28;20019;-66
2024/03/29 06:45:05;;;;;;;6.22;1.63;;;7.10;99.90;;;;;;4984333;28;20509;-66
2024/03/29 06:47:33;;;;;;;3.97;1.30;;;7.20;99.90;;;;;;5001583;28;20030;-66
2024/03/29 06:49:59;;;;;;;5.05;1.38;;;7.20;99.90;;;;;;5002201;28;20037;-66
2024/03/29 06:52:27;;;;;;;6.13;1.48;;;7.20;99.90;;;;;;5008075;28;20469;-66
2024/03/29 06:54:53;;;;;;;4.82;1.35;;;7.30;99.90;;;;;;4986577;28;20023;-66
2024/03/29 06:57:23;;;;;;;3.90;1.42;;;7.30;99.90;;;;;;4983395;28;20040;-66
2024/03/29 06:59:48;;;;;;;4.22;1.45;;;7.40;99.90;;;;;;4986600;28;20023;-66
2024/03/29 07:02:14;;;;;;;3.83;1.40;;;7.50;99.90;;;;;;4983772;28;20526;-66
2024/03/29 07:04:39;;;;;;;7.18;1.73;;;7.50;99.90;;;;;;4981646;28;20473;-66
2024/03/29 07:07:05;;;;;;;2.38;1.10;;;7.60;99.90;;;;;;4984207;28;20038;-66
2024/03/29 07:09:31;;;;;;;5.20;1.60;;;7.60;99.90;;;;;;4987477;28;20446;-66
2024/03/29 07:11:57;;;;;;;4.38;1.33;;;7.70;99.90;;;;;;4980861;28;20019;-66
2024/03/29 07:14:25;;;;;;;5.00;1.55;;;7.80;99.90;;;;;;4988078;28;20026;-66
2024/03/29 07:16:50;;;;;;;4.18;1.33;;;7.90;99.90;;;;;;4980269;28;20024;-66
2024/03/29 07:19:18;;;;;;;4.47;1.50;;;7.80;99.90;;;;;;4982515;28;20042;-67
2024/03/29 07:21:52;;;;;;;3.92;1.30;;;7.80;99.90;;;;;;4982648;28;20051;-67
2024/03/29 07:24:18;;;;;;;6.68;1.40;;;8.00;99.90;;;;;;4987969;28;20179;-67
2024/03/29 07:26:44;;;;;;;3.47;1.30;;;8.10;99.90;;;;;;4987011;28;20030;-66
2024/03/29 07:29:10;;;;;;;5.22;1.30;;;8.10;99.90;;;;;;4984815;28;20030;-67
2024/03/29 07:31:36;;;;;;;5.60;1.67;;;8.10;99.90;;;;;;4977996;28;20058;-67
2024/03/29 07:34:02;;;;;;;4.60;1.35;;;8.20;99.90;;;;;;4982193;28;20065;-67
2024/03/29 07:36:33;;;;;;;6.22;1.65;;;8.20;99.90;;;;;;4985560;28;20524;-67
2024/03/29 07:39:03;;;;;;;3.75;1.10;;;8.40;99.90;;;;;;4986197;28;20057;-68
2024/03/29 07:41:29;;;;;;;3.83;1.42;;;8.60;99.90;;;;;;4982428;28;20022;-68
2024/03/29 07:44:05;;;;;;;3.83;1.30;;;8.60;99.90;;;;;;4978865;28;20370;-67
2024/03/29 07:46:36;;;;;;;4.75;1.45;;;8.70;99.90;;;;;;5007677;28;20042;-67
2024/03/29 07:49:02;;;;;;;4.10;1.30;;;8.90;99.90;;;;;;4981812;28;20105;-67
2024/03/29 07:51:33;;;;;;;4.70;1.30;;;9.00;99.90;;;;;;4987616;28;20101;-68
2024/03/29 07:54:01;;;;;;;6.85;1.65;;;9.10;99.90;;;;;;4986935;28;20015;-68
2024/03/29 07:56:26;;;;;;;3.25;1.20;;;9.30;99.90;;;;;;4989814;28;20041;-67
2024/03/29 07:58:53;;;;;;;3.42;1.10;;;9.40;99.90;;;;;;4986431;28;20022;-69
2024/03/29 08:01:22;;;;;;;4.07;1.20;;;9.40;99.90;;;;;;4982529;28;20030;-68
2024/03/29 08:03:51;;;;;;;2.63;1.02;;;9.50;99.90;;;;;;4979163;28;20354;-68
2024/03/29 08:06:18;;;;;;;4.35;1.40;;;9.60;99.90;;;;;;4980023;28;20039;-68
2024/03/29 08:08:45;;;;;;;3.72;1.08;;;9.70;99.90;;;;;;4984171;28;20033;-68
2024/03/29 08:11:11;;;;;;;4.10;1.20;;;9.70;99.90;;;;;;4985786;28;20029;-68
2024/03/29 08:13:40;;;;;;;4.72;1.38;;;9.70;99.90;;;;;;4982464;28;20035;-68
2024/03/29 08:16:06;;;;;;;7.88;1.65;;;9.70;99.90;;;;;;4985161;28;20470;-68
2024/03/29 08:18:35;;;;;;;3.03;1.17;;;9.70;99.90;;;;;;4974055;28;20161;-67
2024/03/29 08:21:02;;;;;;;4.72;1.35;;;9.80;99.90;;;;;;4972426;28;20095;-67
2024/03/29 08:23:28;;;;;;;3.10;1.10;;;9.90;99.90;;;;;;4980050;28;20046;-67
2024/03/29 08:25:56;;;;;;;3.67;1.33;;;10.00;99.90;;;;;;4988852;28;20023;-67
2024/03/29 08:28:23;;;;;;;5.38;1.13;;;10.10;99.90;;;;;;4983480;28;20033;-67
2024/03/29 08:31:02;;;;;;;7.25;1.10;;;10.20;99.90;;;;;;4975125;28;20026;-67
2024/03/29 08:33:38;;;;;;;3.53;1.20;;;10.30;99.90;;;;;;4973377;28;20034;-68
2024/03/29 08:36:08;;;;;;;2.97;1.17;;;10.30;99.90;;;;;;4973710;28;20019;-68
2024/03/29 08:38:34;;;;;;;3.30;1.10;;;10.40;99.90;;;;;;4972017;28;20031;-68
2024/03/29 08:41:01;;;;;;;4.03;1.30;;;10.40;99.90;;;;;;4975848;28;20057;-66
2024/03/29 08:43:26;;;;;;;2.70;1.10;;;10.40;99.90;;;;;;4982184;28;20382;-67
2024/03/29 08:45:52;;;;;;;3.17;1.20;;;10.30;99.90;;;;;;5002412;28;20087;-66
2024/03/29 08:48:18;;;;;;;3.30;1.23;;;10.40;99.90;;;;;;4986329;28;20461;-66
2024/03/29 08:50:44;;;;;;;4.07;1.40;;;10.30;99.90;;;;;;4984365;28;20030;-66
2024/03/29 08:53:09;;;;;;;3.10;1.05;;;10.40;99.90;;;;;;4983387;28;20070;-66
2024/03/29 08:55:36;;;;;;;2.60;0.90;;;10.50;99.90;;;;;;4983809;28;20022;-66
2024/03/29 08:58:02;;;;;;;3.13;0.90;;;10.60;99.90;;;;;;4984110;28;20338;-66
2024/03/29 09:00:30;;;;;;;5.60;1.40;;;10.70;99.90;;;;;;4971111;28;20022;-65
2024/03/29 09:02:58;;;;;;;2.63;1.05;;;10.70;99.90;;;;;;4978753;28;20027;-65
2024/03/29 09:05:27;;;;;;;4.07;1.13;;;10.70;99.90;;;;;;4978586;28;20027;-66
2024/03/29 09:07:52;;;;;;;4.20;1.20;;;10.70;99.90;;;;;;4983695;28;20072;-66
2024/03/29 09:10:20;;;;;;;3.28;1.20;;;10.70;99.90;;;;;;4974850;28;20022;-66
2024/03/29 09:12:46;;;;;;;2.63;1.08;;;10.60;99.90;;;;;;4970036;28;20035;-66
2024/03/29 09:15:16;;;;;;;2.95;1.08;;;10.60;99.90;;;;;;4987019;28;20080;-65
2024/03/29 09:17:44;;;;;;;4.35;1.23;;;10.70;99.90;;;;;;4971967;28;20023;-66
2024/03/29 09:20:10;;;;;;;3.80;1.10;;;10.90;99.90;;;;;;4971003;28;20738;-66
2024/03/29 09:22:35;;;;;;;4.00;1.60;;;11.00;99.90;;;;;;4987103;28;20456;-66
2024/03/29 09:25:01;;;;;;;1.75;0.82;;;11.10;99.90;;;;;;4989707;28;20026;-66
2024/03/29 09:27:28;;;;;;;3.20;1.13;;;11.30;99.90;;;;;;4987130;28;20117;-65
2024/03/29 09:29:55;;;;;;;3.95;1.08;;;11.50;99.90;;;;;;5002480;28;20087;-66
2024/03/29 09:32:22;;;;;;;3.05;1.02;;;11.70;99.90;;;;;;4986264;28;20026;-66
2024/03/29 09:34:48;;;;;;;2.50;0.90;;;11.80;99.90;;;;;;4990152;28;20031;-66
2024/03/29 09:37:14;;;;;;;2.83;0.90;;;11.90;99.90;;;;;;5009827;28;20022;-66
2024/03/29 09:39:39;;;;;;;2.55;0.95;;;11.90;99.90;;;;;;4999824;28;20038;-66
2024/03/29 09:42:07;;;;;;;2.15;0.95;;;11.80;99.90;;;;;;5005842;28;20041;-66
2024/03/29 09:44:36;;;;;;;3.90;1.08;;;11.80;99.90;;;;;;4987620;28;20030;-65
2024/03/29 09:47:05;;;;;;;2.33;0.93;;;11.80;99.90;;;;;;4995030;28;20109;-65
2024/03/29 09:49:32;;;;;;;5.10;1.33;;;11.80;99.90;;;;;;5011939;28;20463;-65
2024/03/29 09:52:01;;;;;;;3.50;1.00;;;11.80;99.90;;;;;;4995783;28;20061;-65
2024/03/29 09:54:31;;;;;;;4.22;1.10;;;12.00;99.90;;;;;;4990134;28;20473;-65
2024/03/29 09:56:59;;;;;;;3.70;1.00;;;12.20;99.90;;;;;;4971575;28;20378;-66
2024/03/29 09:59:26;;;;;;;3.13;0.90;;;12.40;99.90;;;;;;4983274;28;20506;-64
2024/03/29 10:01:54;;;;;;;3.80;0.90;;;12.60;99.90;;;;;;4970002;28;20105;-66
2024/03/29 10:04:23;;;;;;;3.05;0.90;;;12.70;99.90;;;;;;4971475;28;20391;-66
2024/03/29 10:06:53;;;;;;;3.17;0.88;;;12.80;99.90;;;;;;4970057;28;20022;-66
2024/03/29 10:09:19;;;;;;;2.33;0.95;;;12.90;99.90;;;;;;4970861;28;20039;-66
2024/03/29 10:11:47;;;;;;;2.40;0.95;;;12.90;99.90;;;;;;4991538;28;20045;-66
2024/03/29 10:14:13;;;;;;;2.53;1.00;;;12.90;99.90;;;;;;4986560;28;20547;-66
2024/03/29 10:16:39;;;;;;;2.20;0.75;;;13.00;99.90;;;;;;4977184;28;20062;-66
2024/03/29 10:19:10;;;;;;;1.50;0.90;;;13.30;99.90;;;;;;4975233;28;20035;-66
2024/03/29 10:21:36;;;;;;;2.70;0.90;;;13.40;99.90;;;;;;4995252;28;20050;-66
2024/03/29 10:24:17;;;;;;;1.90;0.80;;;13.50;99.90;;;;;;4973787;28;20384;-65
2024/03/29 10:26:43;;;;;;;2.33;1.00;;;13.40;99.90;;;;;;4973991;28;20047;-66
2024/03/29 10:29:09;;;;;;;2.65;0.93;;;13.30;99.90;;;;;;4981422;28;20420;-66
2024/03/29 10:31:38;;;;;;;2.83;1.10;;;13.20;99.90;;;;;;4977126;28;20029;-66
2024/03/29 10:34:08;;;;;;;1.75;0.77;;;13.30;99.90;;;;;;4993434;28;20031;-66
2024/03/29 10:36:35;;;;;;;;;;;13.40;99.90;;;;;;5032141;28;20020;-66
2024/03/29 10:39:13;;;;;;;3.72;0.90;;;13.60;99.90;;;;;;4982901;28;19906;-66
2024/03/29 10:41:43;;;;;;;2.40;0.90;;;13.70;99.90;;;;;;5007625;28;20059;-66
2024/03/29 10:44:14;;;;;;;3.08;0.90;;;13.80;99.90;;;;;;5041402;28;20023;-66
2024/03/29 10:46:41;;;;;;;4.07;0.80;;;13.80;99.90;;;;;;4973999;28;20795;-66
2024/03/29 10:49:11;;;;;;;1.92;0.90;;;13.90;99.90;;;;;;4978918;28;20023;-65
2024/03/29 10:51:41;;;;;;;2.65;0.80;;;13.90;99.90;;;;;;4992082;28;20065;-65
2024/03/29 10:54:11;;;;;;;2.45;0.90;;;13.90;99.90;;;;;;4977151;28;20084;-65
2024/03/29 10:56:37;;;;;;;1.65;0.90;;;13.80;99.90;;;;;;4985745;28;20046;-65
2024/03/29 10:59:21;;;;;;;2.47;1.00;;;13.80;99.90;;;;;;4993454;28;20041;-62
2024/03/29 11:01:53;;;;;;;1.83;0.80;;;13.70;99.90;;;;;;4982938;28;20031;-63
2024/03/29 11:04:26;;;;;;;5.05;0.82;;;13.60;99.90;;;;;;4976343;28;20038;-64
2024/03/29 11:06:57;;;;;;;1.27;0.90;;;13.80;99.90;;;;;;4991372;28;20034;-63
2024/03/29 11:09:25;;;;;;;1.80;0.80;;;14.00;99.90;;;;;;4992685;28;20022;-64
2024/03/29 11:11:51;;;;;;;2.88;1.00;;;14.00;99.90;;;;;;4978977;28;20030;-64
2024/03/29 11:14:26;;;;;;;3.42;1.00;;;14.30;99.90;;;;;;5025139;28;20079;-64
2024/03/29 11:16:55;;;;;;;3.20;0.88;;;14.60;99.90;;;;;;4992203;28;20053;-64
2024/03/29 11:19:21;;;;;;;3.08;1.20;;;14.90;99.90;;;;;;4984975;28;20041;-64
2024/03/29 11:21:56;;;;;;;3.13;0.80;;;15.20;99.90;;;;;;4990235;28;20560;-64
2024/03/29 11:24:28;;;;;;;2.92;0.90;;;15.40;99.90;;;;;;4992496;28;20022;-65
2024/03/29 11:26:55;;;;;;;1.73;0.85;;;15.40;99.90;;;;;;4993255;28;20023;-64
2024/03/29 11:29:23;;;;;;;2.92;1.02;;;15.60;99.90;;;;;;4987403;28;20625;-64
2024/03/29 11:31:56;;;;;;;4.20;1.00;;;15.90;99.90;;;;;;4982484;28;20454;-64
2024/03/29 11:34:22;;;;;;;2.15;0.70;;;15.80;99.90;;;;;;4982482;28;20026;-64
2024/03/29 11:36:47;;;;;;;1.50;0.80;;;15.30;99.90;;;;;;4993249;28;20037;-64
2024/03/29 11:39:23;;;;;;;2.22;0.80;;;15.00;99.90;;;;;;4992123;28;20038;-63
2024/03/29 11:41:49;;;;;;;1.98;0.70;;;14.70;99.90;;;;;;4992996;28;20033;-63
2024/03/29 11:44:15;;;;;;;2.78;1.00;;;14.70;99.90;;;;;;4991909;28;20097;-64
2024/03/29 11:46:42;;;;;;;2.40;0.88;;;14.90;99.90;;;;;;4995377;28;20120;-64
2024/03/29 11:49:07;;;;;;;3.13;0.93;;;15.00;99.90;;;;;;5011926;28;20018;-64
2024/03/29 11:51:33;;;;;;;1.98;0.80;;;15.10;99.90;;;;;;5011649;28;20105;-63
2024/03/29 11:54:03;;;;;;;1.35;0.70;;;15.00;99.90;;;;;;5013685;28;20018;-64
2024/03/29 11:56:31;;;;;;;4.00;0.90;;;14.80;99.90;;;;;;5013608;28;20025;-64
2024/03/29 11:58:59;;;;;;;1.58;0.90;;;14.90;99.90;;;;;;4999641;28;20031;-64
2024/03/29 12:01:29;;;;;;;2.67;0.80;;;15.00;99.90;;;;;;4993095;28;20041;-63
2024/03/29 12:03:57;;;;;;;2.85;0.90;;;15.00;99.90;;;;;;4982801;28;20027;-63
2024/03/29 12:06:23;;;;;;;2.28;0.90;;;15.00;99.90;;;;;;4995030;28;20041;-63
2024/03/29 12:08:50;;;;;;;2.78;0.90;;;15.10;99.90;;;;;;4992501;28;20413;-63
2024/03/29 12:11:15;;;;;;;3.55;0.88;;;15.30;99.90;;;;;;4974128;28;20466;-63
2024/03/29 12:13:41;;;;;;;2.28;0.93;;;15.30;99.90;;;;;;4974832;28;20026;-63
2024/03/29 12:16:07;;;;;;;2.80;0.90;;;15.40;99.90;;;;;;4974379;28;20026;-64
2024/03/29 12:18:35;;;;;;;1.50;0.80;;;15.30;99.90;;;;;;5012626;28;20030;-64
2024/03/29 12:21:03;;;;;;;1.65;0.70;;;15.10;99.90;;;;;;5011945;28;20053;-63
2024/03/29 12:23:29;;;;;;;4.10;1.00;;;14.90;99.90;;;;;;4984857;28;20063;-63
2024/03/29 12:25:57;;;;;;;3.70;1.52;;;14.60;99.90;;;;;;4992972;28;20049;-63
2024/03/29 12:28:27;;;;;;;2.92;1.13;;;14.30;99.90;;;;;;4981025;28;20027;-63
2024/03/29 12:30:54;;;;;;;1.92;0.90;;;14.20;99.90;;;;;;4983761;28;20038;-63
2024/03/29 12:33:21;;;;;;;2.33;0.90;;;14.00;99.90;;;;;;5005600;28;20028;-63
2024/03/29 12:35:49;;;;;;;3.95;1.13;;;13.80;99.90;;;;;;5000227;28;20038;-63
2024/03/29 12:38:16;;;;;;;2.58;0.98;;;13.70;99.90;;;;;;4999151;28;20049;-63
2024/03/29 12:40:43;;;;;;;3.90;1.17;;;13.70;99.90;;;;;;5009570;28;20033;-63
2024/03/29 12:43:10;;;;;;;3.63;0.93;;;13.70;99.90;;;;;;5007593;28;20030;-64
2024/03/29 12:45:41;;;;;;;2.65;0.90;;;13.70;99.90;;;;;;4984873;28;20123;-64
2024/03/29 12:48:13;;;;;;;;;;;13.60;99.90;;;;;;5016390;28;20158;-64
2024/03/29 12:50:44;;;;;;;3.63;1.30;;;13.40;99.90;;;;;;5008631;28;19916;-64
2024/03/29 12:53:13;;;;;;;3.00;1.10;;;13.20;99.90;;;;;;4991870;28;20389;-64
2024/03/29 12:55:45;;;;;;;3.70;1.30;;;13.10;99.90;;;;;;4998262;28;20025;-65
2024/03/29 12:58:16;;;;;;;4.38;1.30;;;12.80;99.90;;;;;;4994627;28;20094;-64